Time;durP1;ratioP1;P1;durP2;ratioP2;P2;SDS_P1;SDS_P2;PMS_P1;PMS_P2;Temp;Humidity;BMP_temperature;BMP_pressure;BME280_temperature;BME280_humidity;BME280_pressure;Samples;Min_cycle;Max_cycle;Signal;HPM_P1;HPM_P2
2022/04/06 00:00:00;;;;;;;22.13;8.32;;;8.10;99.90;;;;;;4961288;28;20043;-52
2022/04/06 00:02:26;;;;;;;20.92;9.15;;;8.10;99.90;;;;;;4960500;29;20039;-53
2022/04/06 00:04:52;;;;;;;28.63;9.00;;;8.00;99.90;;;;;;4961333;29;20114;-52
2022/04/06 00:07:18;;;;;;;22.65;7.88;;;8.00;99.90;;;;;;4960186;28;20039;-53
2022/04/06 00:09:44;;;;;;;18.92;7.53;;;8.00;99.90;;;;;;4961257;29;20053;-58
2022/04/06 00:12:10;;;;;;;20.35;8.10;;;8.00;99.90;;;;;;4959283;29;20047;-58
2022/04/06 00:14:39;;;;;;;21.05;8.70;;;8.10;99.90;;;;;;4961686;28;20051;-59
2022/04/06 00:17:05;;;;;;;25.52;8.40;;;8.10;99.90;;;;;;4959337;28;20138;-58
2022/04/06 00:19:35;;;;;;;26.05;8.85;;;8.10;99.90;;;;;;4959373;29;20043;-58
2022/04/06 00:22:01;;;;;;;23.05;8.70;;;8.10;99.90;;;;;;4960332;28;20039;-58
2022/04/06 00:24:27;;;;;;;19.25;8.40;;;8.00;99.90;;;;;;4960369;28;20081;-58
2022/04/06 00:26:54;;;;;;;22.45;9.48;;;8.00;99.90;;;;;;4960061;29;20047;-59
2022/04/06 00:29:19;;;;;;;23.80;9.30;;;8.10;99.90;;;;;;4960606;28;20349;-58
2022/04/06 00:31:45;;;;;;;24.23;9.73;;;8.20;99.90;;;;;;4961450;29;20060;-59
2022/04/06 00:34:10;;;;;;;29.00;9.80;;;8.10;99.90;;;;;;4959314;28;20305;-58
2022/04/06 00:36:37;;;;;;;23.67;9.63;;;8.10;99.90;;;;;;4960522;29;20047;-58
2022/04/06 00:39:03;;;;;;;23.27;10.25;;;8.10;99.90;;;;;;4960230;29;20055;-58
2022/04/06 00:41:29;;;;;;;27.92;10.90;;;8.10;99.90;;;;;;4959929;29;20476;-58
2022/04/06 00:44:15;;;;;;;27.83;11.55;;;8.10;99.90;;;;;;4961251;29;20534;-59
2022/04/06 00:46:43;;;;;;;23.50;10.32;;;8.10;99.90;;;;;;4958466;29;20114;-58
2022/04/06 00:49:14;;;;;;;26.60;11.38;;;8.20;99.90;;;;;;4960783;28;20043;-58
2022/04/06 00:51:45;;;;;;;26.92;11.95;;;8.20;99.90;;;;;;4961104;28;20850;-58
2022/04/06 00:54:18;;;;;;;27.20;10.95;;;8.10;99.90;;;;;;4960072;28;20047;-58
2022/04/06 00:56:45;;;;;;;29.90;12.55;;;8.10;99.90;;;;;;4959785;29;20047;-59
2022/04/06 00:59:11;;;;;;;25.77;11.35;;;8.20;99.90;;;;;;4958736;29;20043;-59
2022/04/06 01:01:37;;;;;;;25.52;10.95;;;8.20;99.90;;;;;;4943562;29;20397;-58
2022/04/06 01:04:04;;;;;;;30.98;11.88;;;8.10;99.90;;;;;;4960600;28;20043;-58
2022/04/06 01:06:29;;;;;;;26.13;12.27;;;8.20;99.90;;;;;;4959923;28;20845;-58
2022/04/06 01:08:56;;;;;;;26.95;11.30;;;8.20;99.90;;;;;;4960778;28;20051;-59
2022/04/06 01:11:24;;;;;;;31.70;11.45;;;8.20;99.90;;;;;;4959797;28;20063;-58
2022/04/06 01:13:51;;;;;;;30.42;12.52;;;8.30;99.90;;;;;;4961020;28;20035;-58
2022/04/06 01:16:17;;;;;;;23.08;9.95;;;8.20;99.90;;;;;;4959614;28;20051;-58
2022/04/06 01:18:43;;;;;;;27.52;10.23;;;8.20;99.90;;;;;;4960909;28;20106;-59
2022/04/06 01:21:11;;;;;;;20.95;9.18;;;8.40;99.90;;;;;;4960246;29;20075;-58
2022/04/06 01:23:39;;;;;;;20.67;9.23;;;8.30;99.90;;;;;;4960024;28;20061;-58
2022/04/06 01:26:05;;;;;;;21.02;8.48;;;8.30;99.90;;;;;;4960843;28;20114;-59
2022/04/06 01:28:30;;;;;;;24.27;8.77;;;8.30;99.90;;;;;;4959523;29;20051;-59
2022/04/06 01:30:56;;;;;;;18.23;7.57;;;8.30;99.90;;;;;;4961080;29;20047;-59
2022/04/06 01:33:22;;;;;;;23.85;8.38;;;8.40;99.90;;;;;;4958140;29;20075;-58
2022/04/06 01:35:49;;;;;;;21.13;9.45;;;8.30;99.90;;;;;;4960729;29;20058;-59
2022/04/06 01:38:15;;;;;;;26.40;8.52;;;8.40;99.90;;;;;;4960012;28;20146;-58
2022/04/06 01:40:41;;;;;;;19.40;7.30;;;8.40;99.90;;;;;;4942617;29;20126;-58
2022/04/06 01:43:06;;;;;;;23.88;9.32;;;8.50;99.90;;;;;;4959035;29;20133;-59
2022/04/06 01:45:32;;;;;;;21.13;7.72;;;8.30;99.90;;;;;;4959291;28;20075;-58
2022/04/06 01:47:58;;;;;;;19.00;7.25;;;8.30;99.90;;;;;;4963851;28;20130;-58
2022/04/06 01:53:08;;;;;;;21.23;8.00;;;8.40;99.90;;;;;;4964155;29;20086;-59
2022/04/06 01:55:34;;;;;;;18.20;6.43;;;8.40;99.90;;;;;;4963932;29;20064;-58
2022/04/06 01:57:59;;;;;;;18.77;6.53;;;8.40;99.90;;;;;;4963417;28;20075;-59
2022/04/06 02:00:26;;;;;;;15.55;6.10;;;8.40;99.90;;;;;;4964006;29;20035;-58
2022/04/06 02:02:53;;;;;;;17.30;6.22;;;8.40;99.90;;;;;;4962812;29;20168;-58
2022/04/06 02:05:21;;;;;;;16.15;6.05;;;8.40;99.90;;;;;;4964359;28;20047;-59
2022/04/06 02:07:47;;;;;;;17.80;6.85;;;8.40;99.90;;;;;;4961867;29;20465;-58
2022/04/06 02:10:13;;;;;;;18.75;5.70;;;8.40;99.90;;;;;;4962544;29;20050;-58
2022/04/06 02:12:40;;;;;;;18.77;5.65;;;8.40;99.90;;;;;;4946207;29;20063;-58
2022/04/06 02:15:10;;;;;;;18.25;4.80;;;8.40;99.90;;;;;;4963276;28;20038;-58
2022/04/06 02:17:36;;;;;;;14.15;5.28;;;8.40;99.90;;;;;;4963875;28;20145;-59
2022/04/06 02:20:02;;;;;;;16.73;4.70;;;8.40;99.90;;;;;;4961299;29;20074;-58
2022/04/06 02:22:28;;;;;;;12.40;4.72;;;8.50;99.90;;;;;;4962690;28;20044;-58
2022/04/06 02:24:54;;;;;;;18.65;5.95;;;8.40;99.90;;;;;;4961066;29;20070;-57
2022/04/06 02:27:19;;;;;;;20.75;5.10;;;8.40;99.90;;;;;;4946354;29;20059;-57
2022/04/06 02:29:45;;;;;;;13.35;4.65;;;8.30;99.90;;;;;;4962906;29;20058;-58
2022/04/06 02:32:11;;;;;;;13.40;4.75;;;8.50;99.90;;;;;;4963054;28;20075;-58
2022/04/06 02:34:37;;;;;;;13.32;4.15;;;8.40;99.90;;;;;;4963412;28;20452;-58
2022/04/06 02:37:04;;;;;;;13.75;4.88;;;8.40;99.90;;;;;;4962336;29;20099;-58
2022/04/06 02:39:30;;;;;;;13.35;4.80;;;8.40;99.90;;;;;;4963467;28;20071;-58
2022/04/06 02:41:55;;;;;;;12.18;4.78;;;8.40;99.90;;;;;;4962380;28;20055;-58
2022/04/06 02:44:21;;;;;;;13.35;4.18;;;8.40;99.90;;;;;;4945726;29;20069;-58
2022/04/06 02:46:48;;;;;;;12.77;3.88;;;8.40;99.90;;;;;;4962254;28;20054;-53
2022/04/06 02:49:15;;;;;;;11.32;3.88;;;8.40;99.90;;;;;;4962736;28;20043;-58
2022/04/06 02:51:41;;;;;;;13.18;4.90;;;8.40;99.90;;;;;;4963194;28;20067;-58
2022/04/06 02:54:07;;;;;;;11.02;3.28;;;8.40;99.90;;;;;;4961892;28;20047;-58
2022/04/06 02:56:33;;;;;;;14.02;3.90;;;8.40;99.90;;;;;;4962234;29;20114;-58
2022/04/06 02:58:59;;;;;;;17.67;3.67;;;8.40;99.90;;;;;;4960517;28;20054;-58
2022/04/06 03:01:24;;;;;;;12.93;3.55;;;8.70;99.90;;;;;;4963044;29;20075;-58
2022/04/06 03:03:50;;;;;;;14.02;3.25;;;8.40;99.90;;;;;;4962083;29;20126;-58
2022/04/06 03:06:16;;;;;;;9.30;2.97;;;8.50;99.90;;;;;;4962588;28;20130;-58
2022/04/06 03:08:43;;;;;;;10.55;2.80;;;8.50;99.90;;;;;;4961770;28;20051;-58
2022/04/06 03:11:08;;;;;;;8.40;2.55;;;8.50;99.90;;;;;;4961861;28;20058;-57
2022/04/06 03:13:34;;;;;;;11.35;3.10;;;8.40;99.90;;;;;;4962697;29;20031;-58
2022/04/06 03:16:00;;;;;;;8.55;2.80;;;8.50;99.90;;;;;;4961498;29;20856;-58
2022/04/06 03:18:26;;;;;;;9.50;2.83;;;8.40;99.90;;;;;;4963028;28;20068;-59
2022/04/06 03:20:52;;;;;;;11.50;2.97;;;8.40;99.90;;;;;;4960733;29;20391;-58
2022/04/06 03:23:17;;;;;;;11.68;4.07;;;8.40;99.90;;;;;;4961963;28;20066;-58
2022/04/06 03:25:44;;;;;;;9.60;2.72;;;8.40;99.90;;;;;;4962446;29;20058;-58
2022/04/06 03:28:09;;;;;;;11.90;2.90;;;8.40;99.90;;;;;;4961301;28;20050;-59
2022/04/06 03:30:36;;;;;;;12.35;3.58;;;8.30;99.90;;;;;;4962727;28;20067;-59
2022/04/06 03:33:01;;;;;;;12.95;3.45;;;8.40;99.90;;;;;;4961419;28;20070;-58
2022/04/06 03:35:28;;;;;;;13.15;3.70;;;8.40;99.90;;;;;;4962668;28;20054;-58
2022/04/06 03:37:53;;;;;;;11.88;3.50;;;8.40;99.90;;;;;;4961365;28;20047;-58
2022/04/06 03:40:20;;;;;;;10.23;3.50;;;8.40;99.90;;;;;;4962235;29;20054;-58
2022/04/06 03:42:46;;;;;;;11.45;3.70;;;8.40;99.90;;;;;;4961878;29;20051;-58
2022/04/06 03:45:11;;;;;;;13.13;3.92;;;8.40;99.90;;;;;;4959991;29;20051;-58
2022/04/06 03:47:40;;;;;;;11.88;4.20;;;8.40;99.90;;;;;;4962208;28;20492;-58
2022/04/06 03:50:06;;;;;;;14.15;5.10;;;8.40;99.90;;;;;;4959636;29;20062;-59
2022/04/06 03:52:32;;;;;;;17.27;4.90;;;8.40;99.90;;;;;;4962356;28;20503;-59
2022/04/06 03:54:58;;;;;;;14.38;5.00;;;8.30;99.90;;;;;;4959877;28;20039;-59
2022/04/06 03:57:27;;;;;;;15.05;5.15;;;8.30;99.90;;;;;;4961981;28;20043;-59
2022/04/06 03:59:53;;;;;;;16.80;4.97;;;8.30;99.90;;;;;;4960379;29;20058;-59
2022/04/06 04:02:19;;;;;;;17.42;5.78;;;8.30;99.90;;;;;;4959621;28;20047;-58
2022/04/06 04:04:44;;;;;;;17.20;4.95;;;8.20;99.90;;;;;;4961681;28;20089;-59
2022/04/06 04:07:10;;;;;;;13.35;5.50;;;8.20;99.90;;;;;;4960956;28;20063;-59
2022/04/06 04:09:36;;;;;;;13.82;5.65;;;8.20;99.90;;;;;;4960380;28;20427;-59
2022/04/06 04:12:04;;;;;;;16.30;6.05;;;8.20;99.90;;;;;;4960632;28;20054;-59
2022/04/06 04:14:32;;;;;;;15.95;7.10;;;8.30;99.90;;;;;;4961678;28;20095;-59
2022/04/06 04:17:01;;;;;;;16.35;6.35;;;8.10;99.90;;;;;;4961093;28;20047;-59
2022/04/06 04:19:27;;;;;;;14.50;6.43;;;8.20;99.90;;;;;;4943366;29;20547;-59
2022/04/06 04:21:53;;;;;;;16.25;5.70;;;8.20;99.90;;;;;;4961671;28;20054;-59
2022/04/06 04:24:19;;;;;;;12.52;5.88;;;8.10;99.90;;;;;;4960441;28;20055;-59
2022/04/06 04:26:44;;;;;;;16.55;6.65;;;8.20;99.90;;;;;;4961747;28;20062;-58
2022/04/06 04:29:10;;;;;;;14.98;6.05;;;8.10;99.90;;;;;;4960554;29;20058;-59
2022/04/06 04:31:36;;;;;;;19.02;7.20;;;8.10;99.90;;;;;;4959866;29;20043;-59
2022/04/06 04:34:03;;;;;;;18.58;6.50;;;8.10;99.90;;;;;;4960930;28;20054;-59
2022/04/06 04:36:29;;;;;;;16.05;7.13;;;8.10;99.90;;;;;;4960669;28;20054;-59
2022/04/06 04:38:55;;;;;;;16.25;6.47;;;8.20;99.90;;;;;;4961280;29;20406;-59
2022/04/06 04:41:22;;;;;;;21.80;6.60;;;8.10;99.90;;;;;;4960355;28;20075;-60
2022/04/06 04:43:50;;;;;;;18.17;6.70;;;8.20;99.90;;;;;;4961554;28;20058;-59
2022/04/06 04:46:17;;;;;;;19.77;6.82;;;8.10;99.90;;;;;;4959549;28;20059;-59
2022/04/06 04:48:42;;;;;;;20.10;6.97;;;8.10;99.90;;;;;;4961241;28;20110;-59
2022/04/06 04:51:08;;;;;;;21.35;7.35;;;8.10;99.90;;;;;;4960548;29;20051;-59
2022/04/06 04:53:34;;;;;;;19.98;7.55;;;8.10;99.90;;;;;;4960389;28;20079;-59
2022/04/06 04:56:00;;;;;;;22.05;7.20;;;8.00;99.90;;;;;;4961196;29;20046;-58
2022/04/06 04:58:27;;;;;;;23.90;7.55;;;8.10;99.90;;;;;;4959939;28;20039;-59
2022/04/06 05:00:54;;;;;;;22.40;7.07;;;8.00;99.90;;;;;;4961262;29;20051;-59
2022/04/06 05:03:20;;;;;;;23.75;7.38;;;8.00;99.90;;;;;;4958185;28;20122;-59
2022/04/06 05:05:50;;;;;;;20.30;7.35;;;8.10;99.90;;;;;;4957758;28;20039;-59
2022/04/06 05:08:16;;;;;;;20.08;6.90;;;8.10;99.90;;;;;;4957291;28;20480;-59
2022/04/06 05:10:41;;;;;;;23.52;7.78;;;8.00;99.90;;;;;;4957092;28;20476;-58
2022/04/06 05:13:08;;;;;;;21.48;6.63;;;8.00;99.90;;;;;;4957762;29;20082;-59
2022/04/06 05:15:34;;;;;;;23.27;7.40;;;8.00;99.90;;;;;;4954953;29;20055;-59
2022/04/06 05:17:59;;;;;;;27.92;7.35;;;8.00;99.90;;;;;;4957920;29;20047;-59
2022/04/06 05:20:25;;;;;;;20.45;7.90;;;8.00;99.90;;;;;;4954992;28;20039;-59
2022/04/06 05:22:51;;;;;;;25.48;8.25;;;7.90;99.90;;;;;;4961076;28;20058;-59
2022/04/06 05:25:17;;;;;;;21.85;7.78;;;7.90;99.90;;;;;;4961120;29;20059;-59
2022/04/06 05:27:47;;;;;;;22.60;7.97;;;8.00;99.90;;;;;;4959386;29;20070;-59
2022/04/06 05:30:14;;;;;;;20.15;7.43;;;7.90;99.90;;;;;;4961449;28;20384;-59
2022/04/06 05:32:40;;;;;;;22.50;7.90;;;7.80;99.90;;;;;;4960269;28;20118;-60
2022/04/06 05:35:09;;;;;;;27.27;7.60;;;7.80;99.90;;;;;;4961557;28;20447;-59
2022/04/06 05:37:38;;;;;;;19.27;7.03;;;7.80;99.90;;;;;;4960434;28;20065;-59
2022/04/06 05:40:05;;;;;;;26.15;7.93;;;7.80;99.90;;;;;;4961074;28;20090;-59
2022/04/06 05:42:31;;;;;;;24.95;7.82;;;7.80;99.90;;;;;;4960667;28;20054;-59
2022/04/06 05:44:57;;;;;;;19.60;7.50;;;7.80;99.90;;;;;;4960428;29;20720;-59
2022/04/06 05:47:23;;;;;;;21.83;7.57;;;7.80;99.90;;;;;;4961274;28;20493;-59
2022/04/06 05:49:49;;;;;;;18.80;7.95;;;7.80;99.90;;;;;;4958597;29;20051;-59
2022/04/06 05:52:14;;;;;;;24.67;7.70;;;7.90;99.90;;;;;;4961013;29;20059;-59
2022/04/06 05:54:40;;;;;;;20.77;8.00;;;7.80;99.90;;;;;;4960147;29;20040;-59
2022/04/06 05:57:06;;;;;;;22.42;9.13;;;7.80;99.90;;;;;;4959879;29;20065;-59
2022/04/06 05:59:31;;;;;;;18.17;7.43;;;7.90;99.90;;;;;;4958920;29;20043;-59
2022/04/06 06:01:57;;;;;;;19.88;7.38;;;7.80;99.90;;;;;;4960404;29;20106;-59
2022/04/06 06:04:23;;;;;;;18.83;7.72;;;7.80;99.90;;;;;;4960233;28;20080;-59
2022/04/06 06:06:49;;;;;;;20.98;8.05;;;7.80;99.90;;;;;;4959664;28;20098;-59
2022/04/06 06:09:15;;;;;;;20.98;8.32;;;7.80;99.90;;;;;;4961135;29;20055;-59
2022/04/06 06:11:41;;;;;;;19.48;8.23;;;7.80;99.90;;;;;;4958396;29;20082;-59
2022/04/06 06:14:08;;;;;;;21.40;7.70;;;7.80;99.90;;;;;;4962841;28;20089;-59
2022/04/06 06:16:34;;;;;;;18.33;7.13;;;7.80;99.90;;;;;;4959704;29;20043;-59
2022/04/06 06:19:00;;;;;;;21.85;8.00;;;7.90;99.90;;;;;;4963319;28;20043;-59
2022/04/06 06:21:31;;;;;;;23.48;7.88;;;7.90;99.90;;;;;;4963470;28;20035;-61
2022/04/06 06:24:00;;;;;;;21.27;7.25;;;7.80;99.90;;;;;;4960959;29;20082;-59
2022/04/06 06:26:26;;;;;;;24.15;9.18;;;7.90;99.90;;;;;;4964036;28;20411;-59
2022/04/06 06:28:51;;;;;;;16.50;6.53;;;7.90;99.90;;;;;;4962512;29;20592;-59
2022/04/06 06:31:17;;;;;;;22.70;8.18;;;7.80;99.90;;;;;;4963630;29;20047;-59
2022/04/06 06:33:43;;;;;;;16.27;7.07;;;7.90;99.90;;;;;;4961000;28;20039;-59
2022/04/06 06:36:08;;;;;;;19.33;7.47;;;7.90;99.90;;;;;;4963107;29;20043;-59
2022/04/06 06:38:34;;;;;;;16.33;7.43;;;7.80;99.90;;;;;;4963519;29;20054;-59
2022/04/06 06:41:00;;;;;;;16.73;6.90;;;7.90;99.90;;;;;;4962476;29;20039;-59
2022/04/06 06:43:25;;;;;;;19.25;8.00;;;7.90;99.90;;;;;;4963540;29;20078;-59
2022/04/06 06:45:51;;;;;;;19.35;7.03;;;7.70;99.90;;;;;;4961844;29;20051;-59
2022/04/06 06:48:17;;;;;;;20.02;7.03;;;7.80;99.90;;;;;;4963399;29;20421;-59
2022/04/06 06:50:42;;;;;;;15.70;5.97;;;7.70;99.90;;;;;;4962224;28;20043;-59
2022/04/06 06:53:08;;;;;;;21.90;6.93;;;7.90;99.90;;;;;;4962989;28;20047;-59
2022/04/06 06:55:34;;;;;;;22.63;6.97;;;7.90;99.90;;;;;;4963150;29;20062;-59
2022/04/06 06:57:59;;;;;;;18.52;6.35;;;7.80;99.90;;;;;;4962122;29;20052;-59
2022/04/06 07:00:25;;;;;;;18.92;6.68;;;7.90;99.90;;;;;;4961829;29;20047;-59
2022/04/06 07:02:51;;;;;;;19.25;6.22;;;7.80;99.90;;;;;;4961848;28;20397;-59
2022/04/06 07:05:17;;;;;;;17.55;7.75;;;7.80;99.90;;;;;;4963090;28;20042;-58
2022/04/06 07:07:48;;;;;;;16.75;6.25;;;7.90;99.90;;;;;;4961950;28;20043;-59
2022/04/06 07:10:14;;;;;;;18.57;7.80;;;7.70;99.90;;;;;;4962595;29;20136;-58
2022/04/06 07:12:40;;;;;;;18.73;7.40;;;7.80;99.90;;;;;;4962440;29;20051;-59
2022/04/06 07:15:06;;;;;;;16.17;7.25;;;7.80;99.90;;;;;;4961907;28;20054;-59
2022/04/06 07:17:31;;;;;;;22.13;7.05;;;7.80;99.90;;;;;;4945542;29;20051;-60
2022/04/06 07:19:57;;;;;;;19.98;6.50;;;7.90;99.90;;;;;;4961589;29;20051;-59
2022/04/06 07:22:23;;;;;;;14.73;6.53;;;7.80;99.90;;;;;;4945682;29;20066;-60
2022/04/06 07:24:48;;;;;;;17.30;5.90;;;7.80;99.90;;;;;;4961580;29;20070;-59
2022/04/06 07:27:16;;;;;;;18.75;6.40;;;7.80;99.90;;;;;;4962647;29;20039;-60
2022/04/06 07:29:42;;;;;;;20.58;6.75;;;7.90;99.90;;;;;;4962004;29;20075;-59
2022/04/06 07:32:09;;;;;;;16.95;5.90;;;7.80;99.90;;;;;;4960416;29;20044;-59
2022/04/06 07:34:34;;;;;;;21.85;7.15;;;7.80;99.90;;;;;;4962417;28;20111;-59
2022/04/06 07:37:00;;;;;;;17.83;6.28;;;7.80;99.90;;;;;;4961397;28;20046;-59
2022/04/06 07:39:27;;;;;;;18.55;7.30;;;7.80;99.90;;;;;;4962486;28;20082;-59
2022/04/06 07:41:56;;;;;;;15.05;6.50;;;7.80;99.90;;;;;;4961401;29;20050;-59
2022/04/06 07:44:23;;;;;;;14.38;6.40;;;7.90;99.90;;;;;;4959714;28;20164;-59
2022/04/06 07:46:50;;;;;;;22.20;8.32;;;7.70;99.90;;;;;;4961673;28;20078;-59
2022/04/06 07:49:17;;;;;;;16.63;6.20;;;7.80;99.90;;;;;;4960953;29;20032;-59
2022/04/06 07:51:43;;;;;;;17.60;6.53;;;8.00;99.90;;;;;;4960165;29;20486;-59
2022/04/06 07:54:09;;;;;;;18.77;6.53;;;7.90;99.90;;;;;;4960954;28;20047;-58
2022/04/06 07:56:36;;;;;;;18.27;6.95;;;8.00;99.90;;;;;;4962285;29;20078;-60
2022/04/06 07:59:03;;;;;;;20.17;6.95;;;8.00;99.90;;;;;;4956559;29;20543;-57
2022/04/06 08:01:29;;;;;;;28.02;7.70;;;7.90;99.90;;;;;;4958841;29;20046;-57
2022/04/06 08:03:54;;;;;;;20.42;6.53;;;8.00;99.90;;;;;;4958195;28;20081;-60
2022/04/06 08:06:22;;;;;;;15.98;5.95;;;8.00;99.90;;;;;;4956461;29;20109;-57
2022/04/06 08:08:51;;;;;;;12.32;5.07;;;7.90;99.90;;;;;;4958246;28;20075;-58
2022/04/06 08:11:18;;;;;;;15.02;5.25;;;8.00;99.90;;;;;;4957557;28;20054;-58
2022/04/06 08:13:44;;;;;;;16.90;5.35;;;8.00;99.90;;;;;;4955506;28;20051;-59
2022/04/06 08:16:09;;;;;;;19.52;5.53;;;7.90;99.90;;;;;;4957290;29;20043;-59
2022/04/06 08:18:35;;;;;;;16.90;5.22;;;8.00;99.90;;;;;;4958351;29;20144;-60
2022/04/06 08:21:02;;;;;;;12.25;5.18;;;8.10;99.90;;;;;;4951537;28;20047;-59
2022/04/06 08:23:28;;;;;;;14.50;5.13;;;8.10;99.90;;;;;;4946462;29;20050;-58
2022/04/06 08:25:54;;;;;;;17.50;6.15;;;8.00;99.90;;;;;;4947830;29;20063;-58
2022/04/06 08:28:19;;;;;;;14.35;5.53;;;8.00;99.90;;;;;;4945778;29;20051;-58
2022/04/06 08:30:47;;;;;;;20.33;5.65;;;8.10;99.90;;;;;;4955242;29;20047;-58
2022/04/06 08:33:13;;;;;;;18.58;6.32;;;8.10;99.90;;;;;;4956454;29;20436;-58
2022/04/06 08:35:41;;;;;;;21.25;6.05;;;8.00;99.90;;;;;;4958222;29;20043;-58
2022/04/06 08:38:11;;;;;;;16.40;5.28;;;8.00;99.90;;;;;;4957458;29;20046;-57
2022/04/06 08:40:37;;;;;;;15.65;5.28;;;8.10;99.90;;;;;;4957288;29;20047;-58
2022/04/06 08:43:05;;;;;;;20.85;5.82;;;8.10;99.90;;;;;;4957795;28;20047;-58
2022/04/06 08:45:33;;;;;;;22.08;6.80;;;8.20;99.90;;;;;;4956329;28;20504;-58
2022/04/06 08:48:01;;;;;;;19.30;6.07;;;8.30;99.90;;;;;;4957345;29;20084;-58
2022/04/06 08:50:29;;;;;;;18.85;5.47;;;8.40;99.90;;;;;;4956319;28;20056;-58
2022/04/06 08:52:57;;;;;;;21.05;5.95;;;8.30;99.90;;;;;;4955784;29;20078;-58
2022/04/06 08:55:23;;;;;;;19.00;6.07;;;8.50;99.90;;;;;;4955350;28;20054;-58
2022/04/06 08:57:49;;;;;;;18.67;5.20;;;8.50;99.90;;;;;;4956009;29;20054;-58
2022/04/06 09:00:17;;;;;;;21.00;5.35;;;8.40;99.90;;;;;;4957748;29;20181;-57
2022/04/06 09:02:43;;;;;;;15.10;5.05;;;8.50;99.90;;;;;;4956605;28;20055;-58
2022/04/06 09:05:10;;;;;;;15.95;5.38;;;8.40;99.90;;;;;;4952168;28;20122;-57
2022/04/06 09:07:38;;;;;;;17.35;4.28;;;8.40;99.90;;;;;;4945771;29;20043;-58
2022/04/06 09:10:05;;;;;;;16.52;4.88;;;8.60;99.90;;;;;;4947814;29;20043;-57
2022/04/06 09:12:31;;;;;;;16.80;5.45;;;8.60;99.90;;;;;;4946248;29;20040;-57
2022/04/06 09:15:10;;;;;;;18.77;4.78;;;8.60;99.90;;;;;;4950576;29;20445;-57
2022/04/06 09:17:46;;;;;;;16.88;4.32;;;8.60;99.90;;;;;;4957516;28;20063;-58
2022/04/06 09:20:13;;;;;;;14.30;5.03;;;8.90;99.90;;;;;;4952956;28;20991;-57
2022/04/06 09:22:39;;;;;;;16.33;4.70;;;9.00;99.90;;;;;;4951464;28;20075;-57
2022/04/06 09:25:05;;;;;;;15.77;5.18;;;9.00;99.90;;;;;;4937705;29;20197;-58
2022/04/06 09:27:33;;;;;;;17.30;4.95;;;9.20;99.90;;;;;;4920938;29;20048;-57
2022/04/06 09:29:59;;;;;;;15.30;5.32;;;9.20;99.90;;;;;;4938298;29;20774;-57
2022/04/06 09:32:25;;;;;;;23.40;5.47;;;9.30;99.90;;;;;;4937066;29;20570;-57
2022/04/06 09:34:51;;;;;;;17.98;4.65;;;9.40;99.90;;;;;;4938213;29;20052;-57
2022/04/06 09:37:24;;;;;;;16.02;4.93;;;9.50;99.90;;;;;;4937204;29;20059;-58
2022/04/06 09:39:50;;;;;;;17.70;5.38;;;9.50;99.90;;;;;;4938398;29;20080;-57
2022/04/06 09:42:34;;;;;;;13.68;4.78;;;9.50;99.90;;;;;;4920603;29;20043;-57
2022/04/06 09:47:58;;;;;;;16.60;5.13;;;9.60;99.90;;;;;;4938276;29;20051;-57
2022/04/06 09:50:29;;;;;;;19.88;5.55;;;9.70;99.90;;;;;;4937255;29;20149;-57
2022/04/06 09:53:00;;;;;;;18.98;5.40;;;9.60;99.90;;;;;;4938086;29;20127;-58
2022/04/06 09:55:25;;;;;;;14.32;5.15;;;9.60;99.90;;;;;;4956857;28;20035;-58
2022/04/06 09:57:56;;;;;;;15.00;5.13;;;9.50;99.90;;;;;;4955868;29;20067;-58
2022/04/06 10:00:28;;;;;;;12.30;5.00;;;9.40;99.90;;;;;;4957228;28;20107;-58
2022/04/06 10:03:09;;;;;;;14.48;5.20;;;9.50;99.90;;;;;;4955955;28;20212;-58
2022/04/06 10:05:42;;;;;;;19.30;5.18;;;9.50;99.90;;;;;;4951332;28;20063;-57
2022/04/06 10:08:10;;;;;;;14.93;4.80;;;9.50;99.90;;;;;;4948832;28;20620;-57
2022/04/06 10:10:38;;;;;;;17.30;4.57;;;9.50;99.90;;;;;;4949380;29;20055;-55
2022/04/06 10:13:04;;;;;;;17.70;5.10;;;9.50;99.90;;;;;;4949481;29;20042;-57
2022/04/06 10:15:31;;;;;;;17.75;5.50;;;9.50;99.90;;;;;;4948214;29;20043;-57
2022/04/06 10:17:57;;;;;;;21.00;6.32;;;9.50;99.90;;;;;;4945539;29;20111;-57
2022/04/06 10:20:52;;;;;;;22.80;6.45;;;9.50;99.90;;;;;;4940204;29;20047;-57
2022/04/06 10:23:45;;;;;;;18.75;5.40;;;9.50;99.90;;;;;;4943469;29;20054;-58
2022/04/06 10:26:19;;;;;;;15.35;5.45;;;9.50;99.90;;;;;;4960723;29;20043;-58
2022/04/06 10:28:48;;;;;;;15.32;5.07;;;9.60;99.90;;;;;;4957838;29;20114;-57
2022/04/06 10:31:18;;;;;;;18.10;5.50;;;9.60;99.90;;;;;;4960457;28;20043;-57
2022/04/06 10:33:45;;;;;;;18.63;5.82;;;9.60;99.90;;;;;;4959380;28;20108;-57
2022/04/06 10:36:30;;;;;;;16.67;6.00;;;9.80;99.90;;;;;;4959836;29;20070;-58
2022/04/06 10:39:05;;;;;;;19.17;6.20;;;9.70;99.90;;;;;;4962034;29;20055;-58
2022/04/06 10:41:34;;;;;;;20.17;6.18;;;9.70;99.90;;;;;;4962125;29;20373;-58
2022/04/06 10:44:01;;;;;;;20.05;6.53;;;9.70;99.90;;;;;;4963101;28;20047;-58
2022/04/06 10:46:40;;;;;;;21.05;7.25;;;9.60;99.90;;;;;;4961893;28;20059;-58
2022/04/06 10:49:06;;;;;;;20.25;7.03;;;9.60;99.90;;;;;;4962588;28;20074;-58
2022/04/06 10:51:37;;;;;;;20.80;7.57;;;9.60;99.90;;;;;;4963114;29;20031;-59
2022/04/06 10:54:41;;;;;;;16.75;8.05;;;9.70;99.90;;;;;;4961668;28;20661;-59
2022/04/06 10:57:07;;;;;;;19.65;6.53;;;9.60;99.90;;;;;;4933640;29;20070;-58
2022/04/06 10:59:33;;;;;;;24.67;7.38;;;9.60;99.90;;;;;;4962579;28;20043;-57
2022/04/06 11:02:26;;;;;;;22.60;7.35;;;9.60;99.90;;;;;;4962269;28;20098;-59
2022/04/06 11:04:52;;;;;;;25.15;7.07;;;9.70;99.90;;;;;;4962572;28;20043;-59
2022/04/06 11:10:25;;;;;;;17.25;6.05;;;9.70;99.90;;;;;;4957255;28;20114;-59
2022/04/06 11:13:03;;;;;;;25.77;7.00;;;9.80;99.90;;;;;;4962392;28;20075;-57
2022/04/06 11:15:38;;;;;;;23.70;6.28;;;9.70;99.90;;;;;;4961415;28;20110;-59
2022/04/06 11:18:05;;;;;;;19.45;5.95;;;9.70;99.90;;;;;;4962311;28;20055;-59
2022/04/06 11:20:33;;;;;;;23.77;7.72;;;9.80;99.90;;;;;;4961561;28;20104;-59
2022/04/06 11:23:00;;;;;;;25.88;7.55;;;9.80;99.90;;;;;;4960042;29;20110;-60
2022/04/06 11:25:28;;;;;;;23.52;5.90;;;9.80;99.90;;;;;;4961807;28;20058;-59
2022/04/06 11:28:04;;;;;;;21.88;7.30;;;9.90;99.90;;;;;;4961066;28;20087;-58
2022/04/06 11:30:32;;;;;;;22.60;6.53;;;10.20;99.90;;;;;;4962237;28;20102;-59
2022/04/06 11:33:03;;;;;;;16.13;5.72;;;10.40;99.90;;;;;;4959760;29;20102;-59
2022/04/06 11:35:33;;;;;;;16.50;4.93;;;10.70;99.90;;;;;;4962032;28;20113;-59
2022/04/06 11:38:00;;;;;;;16.13;4.72;;;10.80;99.90;;;;;;4960011;29;20420;-59
2022/04/06 11:40:27;;;;;;;19.50;5.50;;;10.90;99.90;;;;;;4943938;29;20054;-59
2022/04/06 11:42:55;;;;;;;13.75;4.57;;;10.90;99.90;;;;;;4962124;28;20361;-59
2022/04/06 11:45:26;;;;;;;19.38;5.00;;;11.00;99.90;;;;;;4960777;28;20089;-60
2022/04/06 11:47:53;;;;;;;23.50;4.00;;;11.00;99.90;;;;;;4944753;29;20527;-59
2022/04/06 11:50:19;;;;;;;14.27;4.53;;;11.10;99.90;;;;;;4960486;29;20055;-59
2022/04/06 11:52:45;;;;;;;16.02;4.05;;;11.20;99.90;;;;;;4961995;28;20047;-58
2022/04/06 11:55:10;;;;;;;15.45;3.97;;;11.20;99.90;;;;;;4959771;29;20091;-59
2022/04/06 11:57:45;;;;;;;16.58;4.35;;;11.30;99.90;;;;;;4961431;28;20055;-58
2022/04/06 12:00:13;;;;;;;15.25;3.70;;;11.30;99.90;;;;;;4961778;28;20071;-58
2022/04/06 12:02:50;;;;;;;12.82;3.60;;;11.40;99.90;;;;;;4957230;28;20035;-59
2022/04/06 12:05:16;;;;;;;13.18;3.45;;;11.50;99.90;;;;;;4951324;28;20048;-58
2022/04/06 12:07:42;;;;;;;16.13;3.60;;;11.60;99.90;;;;;;4941757;29;20110;-58
2022/04/06 12:10:08;;;;;;;19.80;4.50;;;11.60;99.90;;;;;;4940833;29;20467;-59
2022/04/06 12:12:36;;;;;;;14.90;3.85;;;11.50;99.90;;;;;;4942218;29;20051;-58
2022/04/06 12:15:06;;;;;;;19.02;5.50;;;11.50;99.90;;;;;;4941377;29;20051;-58
2022/04/06 12:17:33;;;;;;;17.45;4.00;;;11.60;99.90;;;;;;4942441;29;20046;-58
2022/04/06 12:20:00;;;;;;;16.20;3.47;;;11.60;99.90;;;;;;4941313;29;20055;-58
2022/04/06 12:22:26;;;;;;;17.63;4.40;;;11.80;99.90;;;;;;4942528;29;20040;-58
2022/04/06 12:24:53;;;;;;;13.75;3.33;;;11.90;99.90;;;;;;4955970;29;20527;-59
2022/04/06 12:27:31;;;;;;;12.63;4.07;;;11.80;99.90;;;;;;4961222;28;20047;-59
2022/04/06 12:30:10;;;;;;;13.98;3.40;;;11.90;99.90;;;;;;4959502;28;20407;-59
2022/04/06 12:32:46;;;;;;;15.10;4.15;;;11.70;99.90;;;;;;4960164;28;20422;-58
2022/04/06 12:35:19;;;;;;;18.17;3.80;;;11.50;99.90;;;;;;4960134;29;20075;-59
2022/04/06 12:37:46;;;;;;;14.50;3.33;;;11.40;99.90;;;;;;4960231;28;20102;-58
2022/04/06 12:40:26;;;;;;;15.40;4.43;;;11.40;99.90;;;;;;4943707;29;20178;-59
2022/04/06 12:42:52;;;;;;;19.73;4.32;;;11.50;99.90;;;;;;4961044;28;20047;-58
2022/04/06 12:45:20;;;;;;;19.05;5.05;;;11.60;99.90;;;;;;4956701;29;20051;-58
2022/04/06 12:47:49;;;;;;;12.85;3.83;;;11.50;99.90;;;;;;4955345;28;20050;-59
2022/04/06 12:50:19;;;;;;;21.98;4.32;;;11.50;99.90;;;;;;4959562;29;20047;-58
2022/04/06 12:53:00;;;;;;;14.15;3.58;;;11.40;99.90;;;;;;4959610;29;20039;-59
2022/04/06 12:55:26;;;;;;;17.17;3.72;;;11.20;99.90;;;;;;4961024;28;20475;-58